Time;durP1;ratioP1;P1;durP2;ratioP2;P2;SDS_P1;SDS_P2;PMS_P1;PMS_P2;Temp;Humidity;BMP_temperature;BMP_pressure;BME280_temperature;BME280_humidity;BME280_pressure;Samples;Min_cycle;Max_cycle;Signal;HPM_P1;HPM_P2
2023/07/01 00:02:00;;;;;;;8.90;7.60;;;;;;;19.82;77.22;94530.06;5093181;28;20466;-78
2023/07/01 00:04:27;;;;;;;8.90;8.00;;;;;;;19.75;77.72;94538.84;5092764;28;20487;-78
2023/07/01 00:06:59;;;;;;;9.50;8.13;;;;;;;19.72;77.75;94530.41;5093057;28;20458;-78
2023/07/01 00:09:26;;;;;;;9.60;8.57;;;;;;;19.56;78.04;94531.53;5042001;28;20452;-77
2023/07/01 00:11:53;;;;;;;8.80;7.40;;;;;;;19.47;80.00;94527.34;5092688;28;20861;-78
2023/07/01 00:14:20;;;;;;;9.13;8.10;;;;;;;19.37;79.13;94522.34;5057401;28;20446;-78
2023/07/01 00:16:48;;;;;;;9.23;8.43;;;;;;;19.41;79.42;94518.28;5095805;28;20443;-78
2023/07/01 00:19:15;;;;;;;9.53;7.03;;;;;;;19.41;80.06;94515.63;5097049;28;20448;-77
2023/07/01 00:21:41;;;;;;;9.07;7.80;;;;;;;19.37;79.57;94524.16;5097191;28;20561;-78
2023/07/01 00:24:11;;;;;;;9.57;7.30;;;;;;;19.28;80.85;94522.66;5061203;28;20479;-78
2023/07/01 00:26:38;;;;;;;9.13;8.20;;;;;;;19.29;80.12;94526.97;5096687;28;20450;-78
2023/07/01 00:29:07;;;;;;;8.70;7.83;;;;;;;19.32;79.36;94514.09;5045215;28;20449;-78
2023/07/01 00:31:33;;;;;;;8.97;8.07;;;;;;;19.37;79.53;94522.34;5096653;28;20799;-78
2023/07/01 00:34:03;;;;;;;8.73;7.80;;;;;;;19.39;79.92;94508.84;5096595;28;20449;-78
2023/07/01 00:36:30;;;;;;;8.30;7.50;;;;;;;19.26;79.43;94514.06;5096593;28;20953;-78
2023/07/01 00:38:57;;;;;;;10.30;8.17;;;;;;;19.22;79.45;94510.97;5096430;28;20468;-78
2023/07/01 00:41:24;;;;;;;8.90;8.10;;;;;;;19.13;79.00;94509.47;5097025;28;20449;-78
2023/07/01 00:43:50;;;;;;;8.90;8.00;;;;;;;19.16;80.15;94509.91;5096747;28;20455;-78
2023/07/01 00:46:17;;;;;;;8.60;7.40;;;;;;;19.14;79.44;94500.47;5096357;28;20481;-79
2023/07/01 00:48:44;;;;;;;9.00;7.63;;;;;;;19.10;80.09;94508.00;5096442;28;20447;-78
2023/07/01 00:51:13;;;;;;;8.67;7.90;;;;;;;19.15;79.95;94500.28;5097436;28;20442;-78
2023/07/01 00:53:40;;;;;;;7.63;6.93;;;;;;;19.10;80.92;94492.06;5096396;28;20941;-78
2023/07/01 00:56:07;;;;;;;10.47;7.70;;;;;;;19.04;81.30;94495.47;5097007;28;20542;-77
2023/07/01 00:58:35;;;;;;;8.50;7.70;;;;;;;19.05;80.62;94497.09;5096461;28;20825;-78
2023/07/01 01:01:09;;;;;;;10.87;7.40;;;;;;;18.96;81.83;94498.25;5096496;28;20535;-78
2023/07/01 01:03:45;;;;;;;8.10;7.40;;;;;;;19.02;82.71;94502.81;5096569;28;20807;-78
2023/07/01 01:06:20;;;;;;;9.63;8.17;;;;;;;19.08;82.48;94510.03;5096446;28;20488;-77
2023/07/01 01:08:59;;;;;;;8.50;7.70;;;;;;;19.11;81.09;94501.69;5096399;28;20441;-77
2023/07/01 01:11:27;;;;;;;8.93;8.10;;;;;;;19.12;81.12;94508.66;5096046;28;20456;-77
2023/07/01 01:13:58;;;;;;;13.43;8.70;;;;;;;19.13;81.42;94507.63;5095855;28;20450;-78
2023/07/01 01:16:26;;;;;;;8.17;7.47;;;;;;;19.13;80.39;94507.63;5095945;28;20831;-78
2023/07/01 01:18:54;;;;;;;8.70;7.80;;;;;;;19.16;81.71;94511.75;5095973;28;20444;-78
2023/07/01 01:21:25;;;;;;;9.10;8.20;;;;;;;19.16;80.58;94501.91;5095844;28;20475;-77
2023/07/01 01:23:57;;;;;;;9.07;7.47;;;;;;;19.24;80.87;94497.47;5095752;28;20465;-77
2023/07/01 01:26:26;;;;;;;8.30;7.50;;;;;;;19.20;79.77;94489.06;5095551;28;20485;-77
2023/07/01 01:28:54;;;;;;;9.53;7.40;;;;;;;19.06;80.19;94495.25;5094759;28;20482;-78
2023/07/01 01:31:21;;;;;;;9.67;8.00;;;;;;;18.88;81.07;94485.09;5095838;28;20451;-77
2023/07/01 01:33:51;;;;;;;7.90;7.10;;;;;;;18.93;83.12;94489.84;5095741;28;20452;-78
2023/07/01 01:36:24;;;;;;;9.30;8.07;;;;;;;18.80;82.67;94495.88;5095560;28;20447;-77
2023/07/01 01:38:52;;;;;;;8.60;7.70;;;;;;;18.81;83.99;94494.88;5096004;28;20450;-78
2023/07/01 01:41:26;;;;;;;10.17;8.10;;;;;;;18.83;83.04;94488.34;5095156;28;20502;-79
2023/07/01 01:44:03;;;;;;;8.87;8.00;;;;;;;18.86;82.57;94492.44;5096164;28;20950;-78
2023/07/01 01:46:32;;;;;;;13.07;7.93;;;;;;;18.85;82.52;94486.31;5095206;28;20484;-79
2023/07/01 01:49:03;;;;;;;8.60;7.80;;;;;;;18.92;82.74;94486.38;5095259;28;20923;-78
2023/07/01 01:51:36;;;;;;;9.97;8.33;;;;;;;18.89;82.30;94478.78;5094981;28;20448;-78
2023/07/01 01:54:06;;;;;;;9.90;8.90;;;;;;;18.92;81.75;94483.69;5094979;28;20443;-79
2023/07/01 01:56:34;;;;;;;8.60;7.83;;;;;;;18.95;83.45;94493.97;5095123;28;20948;-78
2023/07/01 01:59:02;;;;;;;8.40;7.50;;;;;;;19.01;82.69;94493.19;5094953;28;20453;-78
2023/07/01 02:01:29;;;;;;;8.80;7.90;;;;;;;19.04;81.81;94494.63;5095234;28;20448;-78
2023/07/01 02:03:56;;;;;;;10.60;8.07;;;;;;;19.00;82.31;94490.72;5095269;28;20503;-78
2023/07/01 02:06:23;;;;;;;10.10;7.73;;;;;;;18.98;81.87;94487.44;5094535;28;20498;-78
2023/07/01 02:08:50;;;;;;;8.20;7.47;;;;;;;18.80;82.48;94483.41;5094943;28;20454;-78
2023/07/01 02:11:17;;;;;;;8.63;7.60;;;;;;;18.79;83.38;94480.91;5094648;28;20462;-78
2023/07/01 02:13:43;;;;;;;10.27;8.23;;;;;;;18.81;82.79;94482.38;5095006;28;20445;-78
2023/07/01 02:16:11;;;;;;;8.60;7.80;;;;;;;18.83;83.32;94492.84;5094474;28;20479;-79
2023/07/01 02:18:38;;;;;;;8.47;7.67;;;;;;;18.84;83.41;94491.81;5094444;28;20493;-78
2023/07/01 02:21:06;;;;;;;8.43;7.63;;;;;;;18.79;83.18;94486.22;5094429;28;20505;-78
2023/07/01 02:23:33;;;;;;;11.40;8.97;;;;;;;18.78;83.50;94482.75;5094871;28;20448;-78
2023/07/01 02:26:00;;;;;;;9.63;7.43;;;;;;;18.86;83.67;94485.28;5094228;28;20484;-78
2023/07/01 02:28:29;;;;;;;8.67;7.87;;;;;;;18.88;83.02;94479.78;5094351;28;20448;-78
2023/07/01 02:30:58;;;;;;;10.47;7.77;;;;;;;18.89;83.40;94478.78;5094372;28;20453;-78
2023/07/01 02:33:26;;;;;;;7.93;7.23;;;;;;;18.90;83.27;94477.75;5094099;28;20451;-82
2023/07/01 02:35:53;;;;;;;7.93;7.20;;;;;;;19.01;89.53;94474.56;5059462;28;20437;-79
2023/07/01 02:38:22;;;;;;;11.00;7.13;;;;;;;18.97;83.65;94477.81;5094366;28;20463;-78
2023/07/01 02:40:49;;;;;;;8.70;7.77;;;;;;;18.91;82.58;94479.41;5043025;28;20453;-77
2023/07/01 02:43:16;;;;;;;7.53;6.83;;;;;;;18.84;87.46;94487.31;5050245;28;20442;-80
2023/07/01 02:45:42;;;;;;;11.00;7.40;;;;;;;19.33;88.46;94493.66;5038248;28;20854;-78
2023/07/01 02:48:09;;;;;;;8.13;7.13;;;;;;;19.33;81.76;94494.47;5073800;28;20989;-78
2023/07/01 02:50:37;;;;;;;8.47;7.63;;;;;;;19.17;81.33;94492.94;5038661;28;20456;-78
2023/07/01 02:53:06;;;;;;;9.80;8.37;;;;;;;19.13;81.13;94504.16;5073692;28;20932;-78
2023/07/01 02:55:35;;;;;;;8.40;6.53;;;;;;;19.04;81.40;94503.44;5043878;28;20450;-80
2023/07/01 02:58:02;;;;;;;9.47;7.80;;;;;;;18.99;81.21;94503.19;5093852;28;20447;-78
2023/07/01 03:00:29;;;;;;;8.60;7.50;;;;;;;18.89;81.57;94497.38;5093776;28;20473;-77
2023/07/01 03:03:05;;;;;;;9.03;7.07;;;;;;;18.80;81.11;94498.53;5093838;28;20460;-77
2023/07/01 03:05:33;;;;;;;8.60;6.70;;;;;;;18.74;82.09;94501.94;5093506;28;20516;-77
2023/07/01 03:08:01;;;;;;;7.87;7.07;;;;;;;18.74;82.21;94504.59;5093539;28;20451;-78
2023/07/01 03:10:28;;;;;;;8.20;7.47;;;;;;;18.62;82.10;94509.59;5074387;28;20460;-79
2023/07/01 03:12:55;;;;;;;9.17;8.20;;;;;;;18.62;81.65;94506.94;5093412;28;20469;-78
2023/07/01 03:15:21;;;;;;;7.27;6.67;;;;;;;18.63;82.84;94507.75;5092710;28;20434;-79
2023/07/01 03:17:50;;;;;;;8.37;7.40;;;;;;;18.66;81.39;94499.41;5093658;28;20444;-78
2023/07/01 03:20:22;;;;;;;10.00;8.37;;;;;;;18.45;82.25;94516.91;5093594;28;20449;-78
2023/07/01 03:22:50;;;;;;;9.60;8.60;;;;;;;18.45;83.13;94516.91;5083731;28;20999;-77
2023/07/01 03:25:21;;;;;;;11.57;8.80;;;;;;;18.42;85.92;94511.16;5073051;28;20583;-79
2023/07/01 03:27:48;;;;;;;10.03;8.93;;;;;;;18.56;89.59;94513.78;5073127;28;20441;-78
2023/07/01 03:30:17;;;;;;;12.80;9.00;;;;;;;18.85;88.58;94515.56;5073664;28;20449;-78
2023/07/01 03:32:44;;;;;;;15.47;8.23;;;;;;;19.17;86.28;94508.88;5073502;28;20454;-80
2023/07/01 03:35:12;;;;;;;10.30;8.17;;;;;;;19.33;81.59;94514.94;5072867;28;21166;-78
2023/07/01 03:37:39;;;;;;;10.60;8.97;;;;;;;18.95;82.25;94514.41;5072918;28;20439;-79
2023/07/01 03:40:10;;;;;;;14.90;9.70;;;;;;;18.81;83.98;94514.28;5073151;28;20780;-79
2023/07/01 03:42:38;;;;;;;13.80;9.17;;;;;;;18.82;84.93;94515.13;5073149;28;20839;-79
2023/07/01 03:45:10;;;;;;;18.87;9.10;;;;;;;19.23;88.94;94515.28;5073274;28;20502;-80
2023/07/01 03:47:38;;;;;;;10.40;9.23;;;;;;;19.63;88.48;94513.75;5037904;28;20470;-77
